createdAt,value
2019-04-18T00:02:52.141Z,14.07
2019-04-18T00:05:57.350Z,14.08
2019-04-18T00:09:01.379Z,14.05
2019-04-18T00:12:05.841Z,14.00
2019-04-18T00:15:09.911Z,13.91
2019-04-18T00:18:13.943Z,13.82
2019-04-18T00:21:19.751Z,13.72
2019-04-18T00:24:23.691Z,13.62
2019-04-18T00:27:27.770Z,13.65
2019-04-18T00:30:31.733Z,13.71
2019-04-18T00:33:37.540Z,13.68
2019-04-18T00:36:41.414Z,13.70
2019-04-18T00:39:45.664Z,13.67
2019-04-18T00:42:51.848Z,13.62
2019-04-18T00:45:57.782Z,13.61
2019-04-18T00:49:01.599Z,13.48
2019-04-18T00:52:06.088Z,13.46
2019-04-18T00:55:10.307Z,13.49
2019-04-18T00:58:18.396Z,13.46
2019-04-18T01:01:20.240Z,13.40
2019-04-18T01:04:26.804Z,13.34
2019-04-18T01:07:30.339Z,13.40
2019-04-18T01:10:34.604Z,13.43
2019-04-18T01:13:39.930Z,13.38
2019-04-18T01:16:44.404Z,13.35
2019-04-18T01:19:51.687Z,13.39
2019-04-18T01:22:54.495Z,13.30
2019-04-18T01:25:58.606Z,13.31
2019-04-18T01:29:02.933Z,13.24
2019-04-18T01:32:06.923Z,13.22
2019-04-18T01:35:11.270Z,13.22
2019-04-18T01:38:15.597Z,13.20
2019-04-18T01:41:24.525Z,13.25
2019-04-18T01:44:48.156Z,13.22
2019-04-18T01:47:52.072Z,13.20
2019-04-18T01:50:55.970Z,13.16
2019-04-18T01:54:03.537Z,13.14
2019-04-18T01:57:07.655Z,13.11
2019-04-18T02:00:14.820Z,13.04
2019-04-18T02:03:19.320Z,13.15
2019-04-18T02:06:23.310Z,13.08
2019-04-18T02:09:27.367Z,13.05
2019-04-18T02:12:31.545Z,13.07
2019-04-18T02:15:35.526Z,13.06
2019-04-18T02:18:39.450Z,13.01
2019-04-18T02:21:43.467Z,13.05
2019-04-18T02:24:47.607Z,12.96
2019-04-18T02:27:54.990Z,12.87
2019-04-18T02:30:58.096Z,12.89
2019-04-18T02:34:02.097Z,12.85
2019-04-18T02:37:10.396Z,12.79
2019-04-18T02:40:12.493Z,12.84
2019-04-18T02:43:21.754Z,12.80
2019-04-18T02:46:22.128Z,12.80
2019-04-18T02:49:27.381Z,12.77
2019-04-18T02:52:32.341Z,12.84
2019-04-18T02:55:58.807Z,12.77
2019-04-18T02:59:22.121Z,12.70
2019-04-18T03:03:04.964Z,12.68
2019-04-18T03:06:13.422Z,12.73
2019-04-18T03:09:15.202Z,12.73
2019-04-18T03:12:19.430Z,12.71
2019-04-18T03:15:23.461Z,12.66
2019-04-18T03:18:27.792Z,12.67
2019-04-18T03:21:31.878Z,12.66
2019-04-18T03:24:35.796Z,12.61
2019-04-18T03:27:39.694Z,12.63
2019-04-18T03:30:43.617Z,12.54
2019-04-18T03:33:47.564Z,12.67
2019-04-18T03:37:06.359Z,12.61
2019-04-18T03:40:12.095Z,12.55
2019-04-18T03:43:16.077Z,12.60
2019-04-18T03:46:28.226Z,12.54
2019-04-18T03:49:32.064Z,12.59
2019-04-18T03:52:35.972Z,12.55
2019-04-18T03:55:55.485Z,12.47
2019-04-18T03:58:57.212Z,12.48
2019-04-18T04:02:02.385Z,12.38
2019-04-18T04:05:08.111Z,12.35
2019-04-18T04:08:13.211Z,12.33
2019-04-18T04:11:22.310Z,12.29
2019-04-18T04:14:22.741Z,12.24
2019-04-18T04:17:29.420Z,12.17
2019-04-18T04:20:34.672Z,12.15
2019-04-18T04:23:38.566Z,12.14
2019-04-18T04:26:42.504Z,12.16
2019-04-18T04:29:46.803Z,12.20
2019-04-18T04:32:51.531Z,12.16
2019-04-18T04:36:00.910Z,12.12
2019-04-18T04:39:01.698Z,12.09
2019-04-18T04:42:11.738Z,12.05
2019-04-18T04:45:12.354Z,12.06
2019-04-18T04:48:28.597Z,12.08
2019-04-18T04:51:53.887Z,12.04
2019-04-18T04:54:53.229Z,12.00
2019-04-18T04:58:04.379Z,11.99
2019-04-18T05:01:14.085Z,12.00
2019-04-18T05:04:20.672Z,12.07
2019-04-18T05:07:23.710Z,12.09
2019-04-18T05:10:28.017Z,12.05
2019-04-18T05:13:31.836Z,12.13
2019-04-18T05:16:53.086Z,12.11
2019-04-18T05:19:57.316Z,12.18
2019-04-18T05:23:01.210Z,12.17
2019-04-18T05:26:05.411Z,12.19
2019-04-18T05:29:13.562Z,12.33
2019-04-18T05:32:15.418Z,12.39
2019-04-18T05:35:22.906Z,12.39
2019-04-18T05:38:26.577Z,12.47
2019-04-18T05:41:30.574Z,12.55
2019-04-18T05:44:37.218Z,12.59
2019-04-18T05:47:46.272Z,12.71
2019-04-18T05:51:09.128Z,12.78
2019-04-18T05:54:17.083Z,12.81
2019-04-18T05:57:21.278Z,13.01
2019-04-18T06:00:47.496Z,13.07
2019-04-18T06:04:18.782Z,13.09
2019-04-18T06:07:35.682Z,13.18
2019-04-18T06:10:41.698Z,13.36
2019-04-18T06:13:49.955Z,13.43
2019-04-18T06:17:10.741Z,13.52
2019-04-18T06:20:14.907Z,13.53
2019-04-18T06:23:22.652Z,13.65
2019-04-18T06:26:35.300Z,13.67
2019-04-18T06:29:58.196Z,13.78
2019-04-18T06:33:13.083Z,13.88
2019-04-18T06:36:22.186Z,14.03
2019-04-18T06:39:24.501Z,13.94
2019-04-18T06:42:29.812Z,14.14
2019-04-18T06:45:33.987Z,14.22
2019-04-18T06:48:37.936Z,14.27
2019-04-18T06:51:42.062Z,14.34
2019-04-18T06:54:47.392Z,14.42
2019-04-18T06:57:51.605Z,14.42
2019-04-18T07:00:55.494Z,14.45
2019-04-18T07:04:02.075Z,14.47
2019-04-18T07:07:05.287Z,14.62
2019-04-18T07:10:27.857Z,14.69
2019-04-18T07:13:37.478Z,14.73
2019-04-18T07:16:44.804Z,14.72
2019-04-18T07:19:52.870Z,14.87
2019-04-18T07:23:02.136Z,15.01
2019-04-18T07:26:08.280Z,15.09
2019-04-18T07:29:12.498Z,15.10
2019-04-18T07:32:16.386Z,15.26
2019-04-18T07:35:23.935Z,15.32
2019-04-18T07:38:27.844Z,15.41
2019-04-18T07:41:32.116Z,15.32
2019-04-18T07:44:38.717Z,15.34
2019-04-18T07:47:43.374Z,15.38
2019-04-18T07:50:47.166Z,15.54
2019-04-18T07:53:53.334Z,15.61
2019-04-18T07:56:57.186Z,15.77
2019-04-18T08:00:01.153Z,15.83
2019-04-18T08:03:06.491Z,15.94
2019-04-18T08:06:19.669Z,16.01
2019-04-18T08:09:17.288Z,16.05
2019-04-18T08:12:22.821Z,16.21
2019-04-18T08:15:26.736Z,16.13
2019-04-18T08:18:30.681Z,16.21
2019-04-18T08:21:34.667Z,16.21
2019-04-18T08:24:40.191Z,16.37
2019-04-18T08:27:44.938Z,16.32
2019-04-18T08:30:48.964Z,16.32
2019-04-18T08:33:53.094Z,16.82
2019-04-18T08:36:57.351Z,16.91
2019-04-18T08:40:20.934Z,16.91
2019-04-18T08:43:32.965Z,16.97
2019-04-18T08:46:39.585Z,17.17
2019-04-18T08:49:48.902Z,17.15
2019-04-18T08:52:53.116Z,17.32
2019-04-18T08:56:01.604Z,17.36
2019-04-18T08:59:05.347Z,17.62
2019-04-18T09:02:11.538Z,17.73
2019-04-18T09:05:23.020Z,17.83
2019-04-18T09:08:23.837Z,18.10
2019-04-18T09:11:29.176Z,18.41
2019-04-18T09:14:37.874Z,18.46
2019-04-18T09:17:43.023Z,18.50
2019-04-18T09:20:50.909Z,17.96
2019-04-18T09:23:56.346Z,17.94
2019-04-18T09:27:01.000Z,18.42
2019-04-18T09:30:08.536Z,18.62
2019-04-18T09:33:15.994Z,18.83
2019-04-18T09:36:20.575Z,18.91
2019-04-18T09:39:27.133Z,19.05
2019-04-18T09:42:31.802Z,19.18
2019-04-18T09:45:36.477Z,19.12
2019-04-18T09:48:42.465Z,19.23
2019-04-18T09:51:49.221Z,19.24
2019-04-18T09:54:53.813Z,18.95
2019-04-18T09:57:58.089Z,19.18
2019-04-18T10:01:02.149Z,19.45
2019-04-18T10:04:06.684Z,19.18
2019-04-18T10:07:12.879Z,19.25
2019-04-18T10:10:17.583Z,19.11
2019-04-18T10:13:21.737Z,19.21
2019-04-18T10:16:26.119Z,19.54
2019-04-18T10:19:35.582Z,19.74
2019-04-18T10:22:41.599Z,19.73
2019-04-18T10:26:05.900Z,19.88
2019-04-18T10:29:10.281Z,20.07
2019-04-18T10:32:14.523Z,20.30
2019-04-18T10:35:19.523Z,20.39
2019-04-18T10:38:24.081Z,20.56
2019-04-18T10:41:28.118Z,20.61
2019-04-18T10:44:32.090Z,20.69
2019-04-18T10:47:54.345Z,20.69
2019-04-18T10:50:58.259Z,20.80
2019-04-18T10:54:02.515Z,20.94
2019-04-18T10:57:06.863Z,21.02
2019-04-18T11:00:11.363Z,20.79
2019-04-18T11:03:15.405Z,20.60
2019-04-18T11:06:22.546Z,20.52
2019-04-18T11:09:25.182Z,20.49
2019-04-18T11:12:29.569Z,20.92
2019-04-18T11:15:37.220Z,20.90
2019-04-18T11:18:39.126Z,21.07
2019-04-18T11:21:43.144Z,21.01
2019-04-18T11:24:47.282Z,20.78
2019-04-18T11:27:51.184Z,21.07
2019-04-18T11:30:59.343Z,21.34
2019-04-18T11:34:00.922Z,21.51
2019-04-18T11:37:04.874Z,21.55
2019-04-18T11:40:09.234Z,21.46
2019-04-18T11:43:13.331Z,21.51
2019-04-18T11:46:17.202Z,21.49
2019-04-18T11:49:21.094Z,21.69
2019-04-18T11:52:25.340Z,21.81
2019-04-18T11:55:29.382Z,21.46
2019-04-18T11:58:33.319Z,21.49
2019-04-18T12:01:37.860Z,21.61
2019-04-18T12:04:49.338Z,21.56
2019-04-18T12:07:53.374Z,22.06
2019-04-18T12:10:57.553Z,22.26
2019-04-18T12:14:01.781Z,22.42
2019-04-18T12:17:06.041Z,22.48
2019-04-18T12:20:09.958Z,22.61
2019-04-18T12:23:13.888Z,22.83
2019-04-18T12:26:17.798Z,22.94
2019-04-18T12:29:21.967Z,23.01
2019-04-18T12:32:25.951Z,22.51
2019-04-18T12:35:29.841Z,22.64
2019-04-18T12:38:33.779Z,22.41
2019-04-18T12:41:37.745Z,22.56
2019-04-18T12:44:41.916Z,22.87
2019-04-18T12:47:46.386Z,23.13
2019-04-18T12:50:50.301Z,23.32
2019-04-18T12:53:58.073Z,22.98
2019-04-18T12:57:00.812Z,23.12
2019-04-18T13:00:05.589Z,23.10
2019-04-18T13:03:09.551Z,23.33
2019-04-18T13:06:13.556Z,23.46
2019-04-18T13:09:43.763Z,23.70
2019-04-18T13:16:12.037Z,23.82
2019-04-18T13:19:16.302Z,23.82
2019-04-18T13:22:20.166Z,24.00
2019-04-18T13:25:24.122Z,23.99
2019-04-18T13:28:28.007Z,24.14
2019-04-18T13:31:32.143Z,24.36
2019-04-18T13:34:37.119Z,24.37
2019-04-18T13:37:41.029Z,24.52
2019-04-18T13:40:44.532Z,24.69
2019-04-18T13:43:48.495Z,24.67
2019-04-18T13:46:53.225Z,24.69
2019-04-18T13:49:57.512Z,24.69
2019-04-18T13:53:01.423Z,24.86
2019-04-18T13:56:05.495Z,24.79
2019-04-18T13:59:11.062Z,25.00
2019-04-18T14:02:20.627Z,25.38
2019-04-18T14:05:22.273Z,25.32
2019-04-18T14:08:26.669Z,25.33
2019-04-18T14:11:30.685Z,25.46
2019-04-18T14:14:34.540Z,25.38
2019-04-18T14:17:38.423Z,25.41
2019-04-18T14:20:42.317Z,25.24
2019-04-18T14:23:46.140Z,25.36
2019-04-18T14:26:50.000Z,25.42
2019-04-18T14:29:54.041Z,25.55
2019-04-18T14:32:57.884Z,25.53
2019-04-18T14:36:01.800Z,25.33
2019-04-18T14:39:08.569Z,25.35
2019-04-18T14:42:12.502Z,25.77
2019-04-18T14:45:16.685Z,25.82
2019-04-18T14:48:20.568Z,25.76
2019-04-18T14:51:24.750Z,26.05
2019-04-18T14:54:29.245Z,26.01
2019-04-18T14:57:32.564Z,26.01
2019-04-18T15:00:43.557Z,25.84
2019-04-18T15:03:44.017Z,25.76
2019-04-18T15:06:47.991Z,25.75
2019-04-18T15:09:52.382Z,26.03
2019-04-18T15:12:56.422Z,26.41
2019-04-18T15:16:00.277Z,26.52
2019-04-18T15:19:04.250Z,26.24
2019-04-18T15:22:13.381Z,26.29
2019-04-18T15:25:16.555Z,26.18
2019-04-18T15:28:20.695Z,26.09
2019-04-18T15:31:24.549Z,26.29
2019-04-18T15:34:28.827Z,26.62
2019-04-18T15:37:32.712Z,26.64
2019-04-18T15:40:36.755Z,26.48
2019-04-18T15:43:40.910Z,26.19
2019-04-18T15:46:52.632Z,26.11
2019-04-18T15:49:56.563Z,25.98
2019-04-18T15:53:01.790Z,26.18
2019-04-18T15:56:06.127Z,26.27
2019-04-18T15:59:10.433Z,26.39
2019-04-18T16:02:14.620Z,26.04
2019-04-18T16:05:18.605Z,25.51
2019-04-18T16:08:23.063Z,25.03
2019-04-18T16:11:27.148Z,25.38
2019-04-18T16:15:12.386Z,25.61
2019-04-18T16:18:16.271Z,25.60
2019-04-18T16:21:19.908Z,25.74
2019-04-18T16:24:24.831Z,25.44
2019-04-18T16:27:28.902Z,25.70
2019-04-18T16:30:33.189Z,25.47
2019-04-18T16:33:39.896Z,25.29
2019-04-18T16:36:43.808Z,24.93
2019-04-18T16:39:47.943Z,24.92
2019-04-18T16:42:52.009Z,24.98
2019-04-18T16:45:56.046Z,24.67
2019-04-18T16:49:00.091Z,24.65
2019-04-18T16:52:04.219Z,24.52
2019-04-18T16:55:11.575Z,24.20
2019-04-18T16:58:15.628Z,24.11
2019-04-18T17:01:19.633Z,23.56
2019-04-18T17:04:23.550Z,23.65
2019-04-18T17:07:27.828Z,23.48
2019-04-18T17:10:31.986Z,23.41
2019-04-18T17:13:36.014Z,23.38
2019-04-18T17:16:40.639Z,23.31
2019-04-18T17:19:45.018Z,23.25
2019-04-18T17:22:49.624Z,23.21
2019-04-18T17:25:54.333Z,23.03
2019-04-18T17:28:58.201Z,23.06
2019-04-18T17:32:02.157Z,22.96
2019-04-18T17:35:14.856Z,22.81
2019-04-18T17:38:41.160Z,22.62
2019-04-18T17:41:22.392Z,22.57
2019-04-18T17:44:27.389Z,22.50
2019-04-18T17:47:31.563Z,22.41
2019-04-18T17:50:39.386Z,22.30
2019-04-18T17:53:51.313Z,22.27
2019-04-18T17:56:49.761Z,22.14
2019-04-18T17:59:55.229Z,22.11
2019-04-18T18:03:01.011Z,21.92
2019-04-18T18:06:14.544Z,21.81
2019-04-18T18:09:16.857Z,21.73
2019-04-18T18:12:24.752Z,21.61
2019-04-18T18:15:53.974Z,21.64
2019-04-18T18:18:59.161Z,21.52
2019-04-18T18:22:07.292Z,21.45
2019-04-18T18:25:09.328Z,21.29
2019-04-18T18:28:18.393Z,21.12
2019-04-18T18:31:41.037Z,21.13
2019-04-18T18:34:54.949Z,21.10
2019-04-18T18:38:04.000Z,21.01
2019-04-18T18:41:03.983Z,20.90
2019-04-18T18:44:07.932Z,20.81
2019-04-18T18:47:09.521Z,20.74
2019-04-18T18:50:14.087Z,20.64
2019-04-18T18:53:19.224Z,20.53
2019-04-18T18:56:24.805Z,20.47
2019-04-18T18:59:33.726Z,20.43
2019-04-18T19:02:38.753Z,20.39
2019-04-18T19:05:54.384Z,20.35
2019-04-18T19:12:05.394Z,20.08
2019-04-18T19:15:10.515Z,20.07
2019-04-18T19:18:06.939Z,20.08
2019-04-18T19:21:11.943Z,20.05
2019-04-18T19:24:17.495Z,19.92
2019-04-18T19:27:30.058Z,19.86
2019-04-18T19:30:34.905Z,19.88
2019-04-18T19:33:36.581Z,19.86
2019-04-18T19:36:54.617Z,19.82
2019-04-18T19:40:07.840Z,19.79
2019-04-18T19:42:57.490Z,19.77
2019-04-18T19:45:57.692Z,19.67
2019-04-18T19:49:04.709Z,19.68
2019-04-18T19:52:15.444Z,19.56
2019-04-18T19:55:17.874Z,19.50
2019-04-18T19:58:19.447Z,19.44
2019-04-18T20:01:24.411Z,19.46
2019-04-18T20:04:28.374Z,19.46
2019-04-18T20:07:42.898Z,19.37
2019-04-18T20:10:54.330Z,19.29
2019-04-18T20:13:54.566Z,19.19
2019-04-18T20:16:49.990Z,19.16
2019-04-18T20:19:55.152Z,19.03
2019-04-18T20:22:59.826Z,18.98
2019-04-18T20:26:03.888Z,18.94
2019-04-18T20:29:07.829Z,18.91
2019-04-18T20:32:15.366Z,18.88
2019-04-18T20:35:24.731Z,18.83
2019-04-18T20:38:30.313Z,18.77
2019-04-18T20:44:45.533Z,18.66
2019-04-18T20:47:52.009Z,18.62
2019-04-18T20:50:56.560Z,18.56
2019-04-18T20:54:17.737Z,18.46
2019-04-18T20:56:59.785Z,18.43
2019-04-18T21:00:06.119Z,18.39
2019-04-18T21:03:13.647Z,18.35
2019-04-18T21:06:20.334Z,18.42
2019-04-18T21:09:29.313Z,18.39
2019-04-18T21:12:27.649Z,18.25
2019-04-18T21:15:31.519Z,18.21
2019-04-18T21:18:38.477Z,18.19
2019-04-18T21:21:41.821Z,18.15
2019-04-18T21:24:46.004Z,18.10
2019-04-18T21:27:52.608Z,18.18
2019-04-18T21:30:58.479Z,18.08
2019-04-18T21:34:08.647Z,18.11
2019-04-18T21:37:23.103Z,18.18
2019-04-18T21:40:17.761Z,18.04
2019-04-18T21:43:24.084Z,18.01
2019-04-18T21:46:27.092Z,18.00
2019-04-18T21:49:35.222Z,17.91
2019-04-18T21:52:36.882Z,17.85
2019-04-18T21:55:40.817Z,17.91
2019-04-18T21:58:58.709Z,17.84
2019-04-18T22:01:53.451Z,17.81
2019-04-18T22:05:00.288Z,17.81
2019-04-18T22:08:07.051Z,17.76
2019-04-18T22:11:14.600Z,17.71
2019-04-18T22:14:16.386Z,17.61
2019-04-18T22:17:21.013Z,17.58
2019-04-18T22:20:26.362Z,17.58
2019-04-18T22:23:32.516Z,17.67
2019-04-18T22:26:36.629Z,17.57
2019-04-18T22:29:40.818Z,17.54
2019-04-18T22:32:52.998Z,17.52
2019-04-18T22:35:53.572Z,17.42
2019-04-18T22:38:58.918Z,17.38
2019-04-18T22:42:10.710Z,17.37
2019-04-18T22:45:10.573Z,17.30
2019-04-18T22:48:15.783Z,17.23
2019-04-18T22:51:20.275Z,17.20
2019-04-18T22:54:30.236Z,17.20
2019-04-18T22:57:36.568Z,17.18
2019-04-18T23:00:36.983Z,17.10
2019-04-18T23:03:41.652Z,17.06
2019-04-18T23:06:45.977Z,17.01
2019-04-18T23:09:51.263Z,17.00
2019-04-18T23:12:56.969Z,17.03
2019-04-18T23:16:04.000Z,16.94
2019-04-18T23:19:09.295Z,16.97
2019-04-18T23:22:13.577Z,16.95
2019-04-18T23:25:22.174Z,16.91
2019-04-18T23:28:25.493Z,16.90
2019-04-18T23:31:29.466Z,16.92
2019-04-18T23:34:35.502Z,16.75
2019-04-18T23:37:50.946Z,16.82
2019-04-18T23:40:44.808Z,16.80
2019-04-18T23:43:50.108Z,16.82
2019-04-18T23:47:01.694Z,16.83
2019-04-18T23:50:00.778Z,16.83
2019-04-18T23:53:07.698Z,16.72
2019-04-18T23:56:13.436Z,16.73
2019-04-18T23:59:20.932Z,16.73
